createdAt,value
2019-04-28T00:02:02.214Z,57.20
2019-04-28T00:04:31.537Z,54.10
2019-04-28T00:07:01.741Z,53.60
2019-04-28T00:09:31.378Z,53.00
2019-04-28T00:12:01.690Z,52.90
2019-04-28T00:14:31.700Z,53.90
2019-04-28T00:17:01.060Z,54.10
2019-04-28T00:19:30.987Z,55.40
2019-04-28T00:22:04.595Z,57.70
2019-04-28T00:24:41.642Z,57.90
2019-04-28T00:27:11.684Z,59.20
2019-04-28T00:29:45.620Z,59.60
2019-04-28T00:32:11.213Z,55.70
2019-04-28T00:34:41.248Z,52.90
2019-04-28T00:37:11.631Z,52.50
2019-04-28T00:39:40.954Z,51.80
2019-04-28T00:42:11.639Z,52.10
2019-04-28T00:44:41.718Z,53.50
2019-04-28T00:47:11.172Z,54.00
2019-04-28T00:49:48.872Z,54.10
2019-04-28T00:52:21.976Z,54.90
2019-04-28T00:54:52.336Z,51.80
2019-04-28T00:57:21.145Z,54.30
2019-04-28T00:59:57.609Z,54.00
2019-04-28T01:02:25.931Z,56.80
2019-04-28T01:04:54.597Z,59.80
2019-04-28T01:07:23.305Z,61.20
2019-04-28T01:09:51.825Z,62.00
2019-04-28T01:12:21.264Z,61.00
2019-04-28T01:14:52.247Z,61.20
2019-04-28T01:17:22.268Z,60.50
2019-04-28T01:19:52.387Z,61.60
2019-04-28T01:22:20.876Z,61.30
2019-04-28T01:24:49.794Z,61.00
2019-04-28T01:27:30.367Z,59.40
2019-04-28T01:30:07.997Z,59.00
2019-04-28T01:32:41.517Z,58.00
2019-04-28T01:35:10.688Z,58.00
2019-04-28T01:37:40.761Z,57.60
2019-04-28T01:40:10.110Z,58.10
2019-04-28T01:42:38.561Z,56.90
2019-04-28T01:45:07.483Z,56.30
2019-04-28T01:47:35.964Z,56.50
2019-04-28T01:50:05.163Z,54.90
2019-04-28T01:52:33.889Z,54.60
2019-04-28T01:55:02.739Z,55.60
2019-04-28T01:57:31.154Z,55.30
2019-04-28T01:59:59.964Z,55.00
2019-04-28T02:02:35.169Z,55.70
2019-04-28T02:05:04.856Z,57.10
2019-04-28T02:07:33.307Z,59.40
2019-04-28T02:10:01.904Z,60.70
2019-04-28T02:12:30.621Z,60.50
2019-04-28T02:15:00.955Z,61.30
2019-04-28T02:17:30.412Z,61.40
2019-04-28T02:20:00.599Z,61.10
2019-04-28T02:22:31.951Z,61.70
2019-04-28T02:25:00.447Z,61.80
2019-04-28T02:27:30.508Z,60.90
2019-04-28T02:30:00.075Z,62.20
2019-04-28T02:32:30.925Z,61.90
2019-04-28T02:35:01.148Z,62.60
2019-04-28T02:37:30.794Z,63.00
2019-04-28T02:40:02.834Z,60.50
2019-04-28T02:42:30.884Z,59.60
2019-04-28T02:45:00.773Z,62.80
2019-04-28T02:47:33.477Z,61.30
2019-04-28T02:50:01.622Z,59.90
2019-04-28T02:52:51.587Z,61.70
2019-04-28T02:55:21.178Z,61.50
2019-04-28T02:57:51.406Z,61.10
2019-04-28T03:00:21.579Z,60.30
2019-04-28T03:02:51.316Z,61.70
2019-04-28T03:05:21.691Z,61.00
2019-04-28T03:07:51.556Z,63.40
2019-04-28T03:10:21.427Z,63.50
2019-04-28T03:12:51.924Z,64.10
2019-04-28T03:15:20.719Z,63.80
2019-04-28T03:17:52.549Z,62.70
2019-04-28T03:20:21.117Z,61.80
2019-04-28T03:22:51.211Z,63.40
2019-04-28T03:25:21.431Z,62.70
2019-04-28T03:27:54.615Z,62.30
2019-04-28T03:30:43.775Z,62.70
2019-04-28T03:33:18.449Z,62.00
2019-04-28T03:35:44.242Z,61.40
2019-04-28T03:38:12.886Z,62.70
2019-04-28T03:40:41.587Z,62.70
2019-04-28T03:43:13.895Z,62.20
2019-04-28T03:45:45.250Z,63.30
2019-04-28T03:48:13.751Z,63.10
2019-04-28T03:50:42.267Z,63.10
2019-04-28T03:53:11.177Z,62.70
2019-04-28T03:55:41.697Z,61.90
2019-04-28T03:58:10.474Z,62.40
2019-04-28T04:00:40.856Z,62.10
2019-04-28T04:03:10.913Z,64.10
2019-04-28T04:05:40.668Z,62.90
2019-04-28T04:08:10.998Z,62.20
2019-04-28T04:10:50.745Z,62.00
2019-04-28T04:13:33.363Z,61.80
2019-04-28T04:16:12.150Z,61.60
2019-04-28T04:18:53.014Z,62.10
2019-04-28T04:21:21.185Z,63.50
2019-04-28T04:23:50.997Z,61.30
2019-04-28T04:26:21.251Z,60.80
2019-04-28T04:28:51.551Z,60.70
2019-04-28T04:31:20.065Z,60.80
2019-04-28T04:33:50.562Z,61.80
2019-04-28T04:36:21.089Z,61.80
2019-04-28T04:38:51.401Z,63.30
2019-04-28T04:41:20.237Z,62.90
2019-04-28T04:43:51.355Z,63.20
2019-04-28T04:46:21.991Z,63.50
2019-04-28T04:48:51.317Z,62.20
2019-04-28T04:51:21.356Z,64.00
2019-04-28T04:53:51.247Z,63.50
2019-04-28T04:56:21.202Z,62.40
2019-04-28T04:58:50.683Z,62.10
2019-04-28T05:01:27.033Z,60.50
2019-04-28T05:04:09.568Z,61.20
2019-04-28T05:06:39.947Z,60.20
2019-04-28T05:09:10.416Z,62.20
2019-04-28T05:11:40.174Z,61.90
2019-04-28T05:14:11.492Z,61.30
2019-04-28T05:16:40.008Z,61.30
2019-04-28T05:19:10.061Z,60.10
2019-04-28T05:21:40.090Z,59.10
2019-04-28T05:24:15.625Z,58.10
2019-04-28T05:26:47.669Z,59.70
2019-04-28T05:29:19.920Z,60.40
2019-04-28T05:31:46.338Z,60.70
2019-04-28T05:34:14.923Z,61.50
2019-04-28T05:36:44.657Z,64.00
2019-04-28T05:39:13.535Z,63.80
2019-04-28T05:41:42.071Z,66.10
2019-04-28T05:44:10.510Z,62.10
2019-04-28T05:46:40.238Z,61.40
2019-04-28T05:49:13.740Z,61.90
2019-04-28T05:52:00.569Z,62.10
2019-04-28T05:54:33.590Z,61.60
2019-04-28T05:57:03.786Z,63.40
2019-04-28T05:59:42.967Z,64.60
2019-04-28T06:02:13.238Z,65.20
2019-04-28T06:04:41.785Z,64.10
2019-04-28T06:07:12.257Z,64.50
2019-04-28T06:09:42.486Z,66.40
2019-04-28T06:12:12.745Z,67.10
2019-04-28T06:14:41.264Z,68.70
2019-04-28T06:17:10.843Z,70.00
2019-04-28T06:19:40.304Z,70.60
2019-04-28T06:22:09.143Z,71.90
2019-04-28T06:24:37.690Z,73.30
2019-04-28T06:27:06.210Z,72.50
2019-04-28T06:29:34.732Z,73.30
2019-04-28T06:32:03.345Z,72.70
2019-04-28T06:34:32.419Z,73.10
2019-04-28T06:37:00.970Z,74.10
2019-04-28T06:39:29.504Z,72.30
2019-04-28T06:41:58.192Z,74.40
2019-04-28T06:44:26.739Z,73.90
2019-04-28T06:46:55.196Z,74.40
2019-04-28T06:49:23.746Z,75.70
2019-04-28T06:51:52.291Z,75.40
2019-04-28T06:54:20.812Z,76.00
2019-04-28T06:56:49.410Z,75.30
2019-04-28T06:59:17.925Z,75.80
2019-04-28T07:01:46.479Z,73.70
2019-04-28T07:04:14.926Z,74.20
2019-04-28T07:06:43.401Z,74.30
2019-04-28T07:09:12.320Z,74.80
2019-04-28T07:11:40.940Z,73.90
2019-04-28T07:14:09.415Z,74.10
2019-04-28T07:16:37.863Z,74.90
2019-04-28T07:19:06.505Z,75.20
2019-04-28T07:21:45.947Z,75.20
2019-04-28T07:24:14.507Z,73.50
2019-04-28T07:26:43.416Z,73.20
2019-04-28T07:29:11.976Z,73.40
2019-04-28T07:31:40.497Z,73.20
2019-04-28T07:34:09.282Z,73.00
2019-04-28T07:36:37.941Z,74.00
2019-04-28T07:39:07.401Z,72.40
2019-04-28T07:41:35.947Z,72.90
2019-04-28T07:44:04.490Z,73.30
2019-04-28T07:46:32.944Z,73.50
2019-04-28T07:49:01.398Z,73.90
2019-04-28T07:51:31.632Z,71.80
2019-04-28T07:54:11.073Z,72.30
2019-04-28T07:56:39.545Z,73.00
2019-04-28T07:59:08.066Z,72.50
2019-04-28T08:01:36.623Z,72.80
2019-04-28T08:04:05.450Z,73.50
2019-04-28T08:06:33.896Z,72.40
2019-04-28T08:09:02.599Z,70.90
2019-04-28T08:11:31.198Z,72.30
2019-04-28T08:13:59.647Z,70.30
2019-04-28T08:16:28.266Z,71.30
2019-04-28T08:18:56.746Z,71.60
2019-04-28T08:21:25.324Z,70.20
2019-04-28T08:23:54.205Z,68.30
2019-04-28T08:26:22.668Z,67.70
2019-04-28T08:28:51.136Z,68.50
2019-04-28T08:31:21.222Z,67.30
2019-04-28T08:34:01.819Z,66.70
2019-04-28T08:36:21.721Z,65.30
2019-04-28T08:38:50.334Z,66.10
2019-04-28T08:41:19.214Z,64.00
2019-04-28T08:43:47.927Z,63.80
2019-04-28T08:46:16.376Z,64.60
2019-04-28T08:48:44.971Z,66.40
2019-04-28T08:51:13.547Z,63.30
2019-04-28T08:53:42.109Z,63.00
2019-04-28T08:56:10.726Z,62.60
2019-04-28T08:58:39.250Z,64.90
2019-04-28T09:01:07.794Z,64.90
2019-04-28T09:03:36.249Z,64.50
2019-04-28T09:06:04.723Z,63.60
2019-04-28T09:08:33.178Z,62.70
2019-04-28T09:11:01.696Z,59.80
2019-04-28T09:13:30.185Z,57.50
2019-04-28T09:15:58.719Z,55.20
2019-04-28T09:18:27.202Z,54.00
2019-04-28T09:20:55.723Z,54.90
2019-04-28T09:23:24.283Z,53.70
2019-04-28T09:25:52.747Z,53.70
2019-04-28T09:28:21.230Z,53.60
2019-04-28T09:30:49.779Z,55.20
2019-04-28T09:33:18.248Z,53.30
2019-04-28T09:35:47.131Z,55.50
2019-04-28T09:38:15.754Z,53.80
2019-04-28T09:40:44.304Z,52.90
2019-04-28T09:43:23.422Z,53.00
2019-04-28T09:45:53.975Z,52.50
2019-04-28T09:48:22.458Z,52.30
2019-04-28T09:50:51.120Z,50.00
2019-04-28T09:53:19.807Z,51.20
2019-04-28T09:55:48.327Z,51.50
2019-04-28T09:58:16.795Z,52.90
2019-04-28T10:00:45.343Z,53.10
2019-04-28T10:03:13.854Z,53.00
2019-04-28T10:05:42.312Z,53.40
2019-04-28T10:08:10.787Z,54.20
2019-04-28T10:10:39.230Z,52.40
2019-04-28T10:13:08.063Z,53.30
2019-04-28T10:15:36.603Z,53.80
2019-04-28T10:18:05.123Z,51.30
2019-04-28T10:20:33.728Z,51.30
2019-04-28T10:23:02.347Z,51.60
2019-04-28T10:25:30.866Z,54.40
2019-04-28T10:27:59.347Z,52.60
2019-04-28T10:30:27.955Z,50.30
2019-04-28T10:32:56.448Z,51.10
2019-04-28T10:35:25.339Z,50.60
2019-04-28T10:37:53.787Z,51.80
2019-04-28T10:40:51.173Z,51.90
2019-04-28T10:43:19.691Z,51.80
2019-04-28T10:45:50.011Z,52.60
2019-04-28T10:48:18.460Z,52.30
2019-04-28T10:50:47.219Z,49.60
2019-04-28T10:53:16.105Z,51.90
2019-04-28T10:55:44.798Z,52.00
2019-04-28T10:58:13.376Z,52.50
2019-04-28T11:00:42.190Z,51.60
2019-04-28T11:03:10.707Z,50.90
2019-04-28T11:05:43.362Z,52.80
2019-04-28T11:08:30.432Z,50.20
2019-04-28T11:11:00.618Z,50.30
2019-04-28T11:13:29.417Z,50.10
2019-04-28T11:15:57.901Z,52.00
2019-04-28T11:18:26.483Z,51.40
2019-04-28T11:20:55.522Z,51.30
2019-04-28T11:23:24.226Z,51.10
2019-04-28T11:25:52.934Z,51.90
2019-04-28T11:28:22.898Z,49.40
2019-04-28T11:30:51.392Z,49.90
2019-04-28T11:33:39.915Z,48.30
2019-04-28T11:36:08.503Z,50.10
2019-04-28T11:38:36.954Z,49.80
2019-04-28T11:41:06.270Z,47.40
2019-04-28T11:43:34.781Z,47.90
2019-04-28T11:46:04.694Z,48.30
2019-04-28T11:48:33.579Z,49.50
2019-04-28T11:51:02.035Z,49.00
2019-04-28T11:53:30.560Z,47.40
2019-04-28T11:55:59.204Z,47.70
2019-04-28T11:58:28.027Z,48.20
2019-04-28T12:00:56.679Z,45.30
2019-04-28T12:03:25.497Z,45.30
2019-04-28T12:05:54.097Z,45.60
2019-04-28T12:08:22.510Z,45.60
2019-04-28T12:11:04.848Z,45.30
2019-04-28T12:13:38.127Z,45.10
2019-04-28T12:16:24.795Z,46.50
2019-04-28T12:18:55.288Z,44.30
2019-04-28T12:21:23.731Z,44.40
2019-04-28T12:23:52.211Z,43.80
2019-04-28T12:26:20.677Z,45.40
2019-04-28T12:28:49.433Z,46.60
2019-04-28T12:31:18.062Z,44.30
2019-04-28T12:33:46.520Z,44.50
2019-04-28T12:36:15.063Z,45.00
2019-04-28T12:38:43.606Z,47.00
2019-04-28T12:41:12.066Z,44.50
2019-04-28T12:43:40.717Z,44.60
2019-04-28T12:46:09.238Z,43.40
2019-04-28T12:48:37.819Z,44.70
2019-04-28T12:51:06.358Z,43.60
2019-04-28T12:53:35.142Z,44.70
2019-04-28T12:56:03.755Z,44.30
2019-04-28T12:58:32.276Z,47.00
2019-04-28T13:01:02.527Z,44.90
2019-04-28T13:03:32.643Z,42.90
2019-04-28T13:06:05.727Z,43.20
2019-04-28T13:08:33.129Z,42.40
2019-04-28T13:11:01.704Z,45.20
2019-04-28T13:13:30.571Z,45.20
2019-04-28T13:15:59.018Z,44.70
2019-04-28T13:18:27.493Z,43.50
2019-04-28T13:20:58.811Z,42.10
2019-04-28T13:23:26.117Z,43.50
2019-04-28T13:25:54.730Z,41.60
2019-04-28T13:28:23.177Z,42.20
2019-04-28T13:30:51.804Z,41.20
2019-04-28T13:33:20.400Z,41.60
2019-04-28T13:35:48.994Z,44.40
2019-04-28T13:38:17.471Z,42.30
2019-04-28T13:40:46.049Z,42.50
2019-04-28T13:43:14.575Z,42.10
2019-04-28T13:45:43.089Z,41.70
2019-04-28T13:48:11.705Z,43.40
2019-04-28T13:50:40.162Z,43.10
2019-04-28T13:53:09.154Z,41.50
2019-04-28T13:55:39.772Z,44.30
2019-04-28T13:58:08.369Z,44.40
2019-04-28T14:00:41.480Z,41.00
2019-04-28T14:03:26.645Z,41.40
2019-04-28T14:06:09.020Z,41.60
2019-04-28T14:08:37.517Z,41.40
2019-04-28T14:11:06.190Z,45.30
2019-04-28T14:13:34.801Z,41.40
2019-04-28T14:16:03.748Z,42.00
2019-04-28T14:18:32.282Z,42.40
2019-04-28T14:21:00.832Z,44.00
2019-04-28T14:23:29.300Z,41.90
2019-04-28T14:25:57.949Z,42.00
2019-04-28T14:28:26.511Z,44.10
2019-04-28T14:30:55.096Z,45.90
2019-04-28T14:33:23.614Z,43.70
2019-04-28T14:35:52.122Z,44.50
2019-04-28T14:38:20.742Z,44.40
2019-04-28T14:40:49.321Z,46.20
2019-04-28T14:43:18.430Z,45.60
2019-04-28T14:45:47.092Z,46.40
2019-04-28T14:48:15.641Z,47.00
2019-04-28T14:50:44.273Z,47.00
2019-04-28T14:53:12.894Z,44.50
2019-04-28T14:55:41.498Z,45.60
2019-04-28T14:58:09.978Z,45.00
2019-04-28T15:00:40.070Z,45.60
2019-04-28T15:03:10.163Z,45.30
2019-04-28T15:05:56.606Z,45.80
2019-04-28T15:08:26.711Z,45.20
2019-04-28T15:10:56.803Z,43.00
2019-04-28T15:13:26.043Z,43.40
2019-04-28T15:15:54.556Z,44.00
2019-04-28T15:18:23.002Z,45.40
2019-04-28T15:20:51.548Z,42.60
2019-04-28T15:23:20.066Z,42.80
2019-04-28T15:25:48.515Z,41.60
2019-04-28T15:28:17.052Z,42.30
2019-04-28T15:30:45.671Z,43.70
2019-04-28T15:33:14.190Z,42.30
2019-04-28T15:35:42.814Z,42.10
2019-04-28T15:38:11.266Z,39.20
2019-04-28T15:40:39.783Z,43.70
2019-04-28T15:43:08.270Z,43.90
2019-04-28T15:45:36.813Z,44.20
2019-04-28T15:48:05.430Z,44.90
2019-04-28T15:50:33.909Z,44.90
2019-04-28T15:53:02.521Z,45.00
2019-04-28T15:55:35.593Z,43.70
2019-04-28T15:58:22.331Z,46.20
2019-04-28T16:00:50.802Z,43.60
2019-04-28T16:03:19.317Z,43.60
2019-04-28T16:05:47.900Z,41.60
2019-04-28T16:08:16.349Z,43.10
2019-04-28T16:10:44.893Z,45.00
2019-04-28T16:13:13.370Z,45.20
2019-04-28T16:15:41.892Z,46.30
2019-04-28T16:18:10.459Z,46.50
2019-04-28T16:20:38.938Z,46.40
2019-04-28T16:23:07.460Z,46.40
2019-04-28T16:25:37.290Z,45.60
2019-04-28T16:28:05.923Z,44.80
2019-04-28T16:30:34.791Z,45.00
2019-04-28T16:33:03.394Z,45.90
2019-04-28T16:35:31.887Z,45.80
2019-04-28T16:38:00.729Z,46.40
2019-04-28T16:40:29.835Z,46.90
2019-04-28T16:42:58.944Z,47.70
2019-04-28T16:45:27.538Z,46.00
2019-04-28T16:47:56.097Z,46.40
2019-04-28T16:50:24.581Z,47.70
2019-04-28T16:52:53.026Z,46.90
2019-04-28T16:55:23.205Z,48.10
2019-04-28T16:57:59.202Z,46.80
2019-04-28T17:00:35.263Z,44.70
2019-04-28T17:03:03.917Z,45.20
2019-04-28T17:05:32.755Z,44.90
2019-04-28T17:08:01.348Z,44.80
2019-04-28T17:10:29.823Z,46.80
2019-04-28T17:12:58.274Z,46.10
2019-04-28T17:15:26.731Z,45.10
2019-04-28T17:17:55.223Z,45.80
2019-04-28T17:20:23.734Z,45.10
2019-04-28T17:22:52.182Z,44.90
2019-04-28T17:25:20.733Z,46.30
2019-04-28T17:27:49.271Z,45.80
2019-04-28T17:30:19.214Z,48.20
2019-04-28T17:32:47.644Z,48.90
2019-04-28T17:35:16.122Z,49.10
2019-04-28T17:37:44.662Z,49.30
2019-04-28T17:40:13.631Z,49.60
2019-04-28T17:42:42.214Z,49.50
2019-04-28T17:45:11.623Z,49.90
2019-04-28T17:47:40.147Z,50.50
2019-04-28T17:50:10.227Z,50.50
2019-04-28T17:52:38.743Z,51.70
2019-04-28T17:55:07.367Z,51.60
2019-04-28T17:57:35.950Z,51.50
2019-04-28T18:00:24.455Z,52.30
2019-04-28T18:02:57.537Z,51.80
2019-04-28T18:05:27.757Z,51.60
2019-04-28T18:07:57.881Z,51.70
2019-04-28T18:10:28.197Z,52.20
2019-04-28T18:13:00.841Z,52.20
2019-04-28T18:15:40.973Z,52.20
2019-04-28T18:18:11.162Z,52.60
2019-04-28T18:20:39.642Z,52.70
2019-04-28T18:23:08.298Z,52.60
2019-04-28T18:25:36.802Z,52.20
2019-04-28T18:28:05.348Z,52.30
2019-04-28T18:30:35.435Z,52.40
2019-04-28T18:33:17.606Z,53.70
2019-04-28T18:35:50.593Z,53.80
2019-04-28T18:38:33.981Z,53.50
2019-04-28T18:40:52.735Z,52.70
2019-04-28T18:43:22.973Z,53.20
2019-04-28T18:45:51.458Z,52.80
2019-04-28T18:48:19.922Z,52.50
2019-04-28T18:50:48.398Z,52.50
2019-04-28T18:53:16.842Z,52.50
2019-04-28T18:55:45.319Z,53.60
2019-04-28T18:58:13.893Z,53.00
2019-04-28T19:00:44.109Z,52.80
2019-04-28T19:03:12.976Z,53.00
2019-04-28T19:05:43.159Z,52.40
2019-04-28T19:08:13.256Z,53.30
2019-04-28T19:10:55.234Z,53.10
2019-04-28T19:13:27.991Z,53.50
2019-04-28T19:16:07.015Z,53.80
2019-04-28T19:18:42.915Z,55.00
2019-04-28T19:21:11.394Z,56.10
2019-04-28T19:23:39.918Z,56.10
2019-04-28T19:26:08.467Z,56.40
2019-04-28T19:28:36.911Z,55.90
2019-04-28T19:31:05.444Z,56.10
2019-04-28T19:33:33.990Z,55.60
2019-04-28T19:36:02.447Z,56.30
2019-04-28T19:38:30.892Z,56.30
2019-04-28T19:40:59.383Z,54.90
2019-04-28T19:43:28.211Z,56.30
2019-04-28T19:45:58.439Z,57.20
2019-04-28T19:48:26.915Z,58.00
2019-04-28T19:50:55.432Z,59.10
2019-04-28T19:53:23.999Z,59.00
2019-04-28T19:55:56.941Z,58.00
2019-04-28T19:58:30.014Z,57.40
2019-04-28T20:01:00.565Z,58.00
2019-04-28T20:03:29.098Z,58.30
2019-04-28T20:05:57.935Z,58.90
2019-04-28T20:08:26.411Z,57.90
2019-04-28T20:10:55.218Z,57.00
2019-04-28T20:13:23.823Z,57.60
2019-04-28T20:15:52.677Z,57.90
2019-04-28T20:18:21.124Z,57.80
2019-04-28T20:20:49.612Z,58.10
2019-04-28T20:23:18.130Z,58.10
2019-04-28T20:25:46.573Z,58.40
2019-04-28T20:28:15.050Z,59.30
2019-04-28T20:30:43.504Z,58.60
2019-04-28T20:33:11.950Z,58.30
2019-04-28T20:35:42.163Z,58.50
2019-04-28T20:38:18.337Z,59.10
2019-04-28T20:40:48.519Z,59.30
2019-04-28T20:43:18.570Z,58.90
2019-04-28T20:45:47.354Z,59.40
2019-04-28T20:48:16.247Z,59.00
2019-04-28T20:50:44.657Z,58.80
2019-04-28T20:53:13.217Z,59.00
2019-04-28T20:55:42.096Z,59.30
2019-04-28T20:58:10.548Z,59.50
2019-04-28T21:00:39.098Z,58.70
2019-04-28T21:03:07.670Z,59.20
2019-04-28T21:05:36.234Z,59.30
2019-04-28T21:08:04.781Z,59.30
2019-04-28T21:10:38.372Z,59.20
2019-04-28T21:13:03.638Z,58.40
2019-04-28T21:15:32.127Z,57.80
2019-04-28T21:18:00.599Z,57.70
2019-04-28T21:20:29.052Z,58.00
2019-04-28T21:22:57.588Z,59.20
2019-04-28T21:25:26.103Z,59.00
2019-04-28T21:27:54.604Z,59.70
2019-04-28T21:30:23.214Z,57.00
2019-04-28T21:32:51.627Z,56.90
2019-04-28T21:35:20.122Z,58.90
2019-04-28T21:37:48.664Z,57.40
2019-04-28T21:40:18.326Z,58.10
2019-04-28T21:42:54.058Z,59.30
2019-04-28T21:45:24.182Z,60.70
2019-04-28T21:47:52.636Z,61.60
2019-04-28T21:50:21.115Z,61.60
2019-04-28T21:52:49.567Z,62.30
2019-04-28T21:55:18.026Z,60.80
2019-04-28T21:57:47.290Z,62.90
2019-04-28T22:00:17.867Z,62.60
2019-04-28T22:02:46.392Z,63.30
2019-04-28T22:05:14.936Z,63.70
2019-04-28T22:07:43.431Z,62.70
2019-04-28T22:10:11.951Z,63.40
2019-04-28T22:12:40.395Z,63.50
2019-04-28T22:15:08.959Z,63.90
2019-04-28T22:17:37.503Z,64.80
2019-04-28T22:20:07.186Z,65.10
2019-04-28T22:22:35.667Z,65.80
2019-04-28T22:25:07.962Z,65.30
2019-04-28T22:27:41.515Z,66.40
2019-04-28T22:30:09.202Z,66.70
2019-04-28T22:32:37.801Z,66.00
2019-04-28T22:35:07.380Z,65.70
2019-04-28T22:37:35.936Z,65.20
2019-04-28T22:40:06.314Z,65.40
2019-04-28T22:42:34.730Z,66.10
2019-04-28T22:45:03.930Z,66.00
2019-04-28T22:47:32.418Z,66.00
2019-04-28T22:50:00.950Z,67.20
2019-04-28T22:52:29.402Z,64.90
2019-04-28T22:54:59.677Z,64.10
2019-04-28T22:57:45.141Z,65.00
2019-04-28T23:00:34.258Z,66.10
2019-04-28T23:03:02.885Z,66.00
2019-04-28T23:05:31.474Z,66.40
2019-04-28T23:07:59.919Z,65.20
2019-04-28T23:10:28.533Z,67.80
2019-04-28T23:12:56.979Z,69.40
2019-04-28T23:15:25.439Z,69.50
2019-04-28T23:17:54.052Z,69.50
2019-04-28T23:20:24.242Z,70.50
2019-04-28T23:22:52.690Z,70.80
2019-04-28T23:25:21.204Z,69.90
2019-04-28T23:27:49.688Z,71.30
2019-04-28T23:30:36.422Z,70.80
2019-04-28T23:33:05.030Z,70.70
2019-04-28T23:35:33.571Z,70.00
2019-04-28T23:38:02.017Z,70.50
2019-04-28T23:40:30.674Z,69.30
2019-04-28T23:43:06.838Z,68.10
2019-04-28T23:45:35.386Z,68.40
2019-04-28T23:48:03.977Z,67.00
2019-04-28T23:50:34.133Z,68.00
2019-04-28T23:53:04.407Z,68.70
2019-04-28T23:55:32.847Z,69.20
2019-04-28T23:58:01.454Z,69.30
